sensor_id;sensor_type;location;lat;lon;timestamp;temperature;humidity
63202;DHT22;49296;48.188;11.566;2023-07-20T00:02:00;22.85;54.11
63202;DHT22;49296;48.188;11.566;2023-07-20T00:04:28;22.71;54.66
63202;DHT22;49296;48.188;11.566;2023-07-20T00:06:56;22.92;54.22
63202;DHT22;49296;48.188;11.566;2023-07-20T00:09:23;23.06;53.88
63202;DHT22;49296;48.188;11.566;2023-07-20T00:11:50;22.87;53.99
63202;DHT22;49296;48.188;11.566;2023-07-20T00:14:17;22.64;54.46
63202;DHT22;49296;48.188;11.566;2023-07-20T00:16:44;22.63;54.68
63202;DHT22;49296;48.188;11.566;2023-07-20T00:19:11;22.67;54.55
63202;DHT22;49296;48.188;11.566;2023-07-20T00:21:38;22.65;54.58
63202;DHT22;49296;48.188;11.566;2023-07-20T00:24:07;22.76;54.41
63202;DHT22;49296;48.188;11.566;2023-07-20T00:26:34;22.81;54.23
63202;DHT22;49296;48.188;11.566;2023-07-20T00:29:01;22.78;54.30
63202;DHT22;49296;48.188;11.566;2023-07-20T00:31:28;22.79;54.28
63202;DHT22;49296;48.188;11.566;2023-07-20T00:33:55;22.91;54.41
63202;DHT22;49296;48.188;11.566;2023-07-20T00:36:22;22.90;54.12
63202;DHT22;49296;48.188;11.566;2023-07-20T00:38:49;22.78;54.34
63202;DHT22;49296;48.188;11.566;2023-07-20T00:41:17;22.74;54.52
63202;DHT22;49296;48.188;11.566;2023-07-20T00:43:44;22.56;54.68
63202;DHT22;49296;48.188;11.566;2023-07-20T00:46:11;22.79;54.52
63202;DHT22;49296;48.188;11.566;2023-07-20T00:48:38;22.99;53.97
63202;DHT22;49296;48.188;11.566;2023-07-20T00:51:06;23.09;53.78
63202;DHT22;49296;48.188;11.566;2023-07-20T00:53:33;22.91;54.13
63202;DHT22;49296;48.188;11.566;2023-07-20T00:56:00;22.67;54.50
63202;DHT22;49296;48.188;11.566;2023-07-20T00:58:29;22.82;54.39
63202;DHT22;49296;48.188;11.566;2023-07-20T01:00:56;22.56;54.76
63202;DHT22;49296;48.188;11.566;2023-07-20T01:03:23;22.71;54.51
63202;DHT22;49296;48.188;11.566;2023-07-20T01:05:53;22.63;54.70
63202;DHT22;49296;48.188;11.566;2023-07-20T01:08:25;22.61;54.80
63202;DHT22;49296;48.188;11.566;2023-07-20T01:11:00;22.64;54.80
63202;DHT22;49296;48.188;11.566;2023-07-20T01:13:29;22.67;54.75
63202;DHT22;49296;48.188;11.566;2023-07-20T01:15:57;22.36;55.40
63202;DHT22;49296;48.188;11.566;2023-07-20T01:18:25;22.43;55.47
63202;DHT22;49296;48.188;11.566;2023-07-20T01:20:52;22.39;55.57
63202;DHT22;49296;48.188;11.566;2023-07-20T01:23:46;22.47;55.41
63202;DHT22;49296;48.188;11.566;2023-07-20T01:26:37;22.44;55.53
63202;DHT22;49296;48.188;11.566;2023-07-20T01:29:25;22.28;55.52
63202;DHT22;49296;48.188;11.566;2023-07-20T01:31:57;22.47;55.13
63202;DHT22;49296;48.188;11.566;2023-07-20T01:34:24;22.15;55.45
63202;DHT22;49296;48.188;11.566;2023-07-20T01:36:53;21.98;55.53
63202;DHT22;49296;48.188;11.566;2023-07-20T01:39:21;22.06;55.18
63202;DHT22;49296;48.188;11.566;2023-07-20T01:41:48;22.26;54.96
63202;DHT22;49296;48.188;11.566;2023-07-20T01:44:15;22.22;54.57
63202;DHT22;49296;48.188;11.566;2023-07-20T01:46:42;22.20;54.09
63202;DHT22;49296;48.188;11.566;2023-07-20T01:49:10;22.51;53.52
63202;DHT22;49296;48.188;11.566;2023-07-20T01:51:37;22.43;53.41
63202;DHT22;49296;48.188;11.566;2023-07-20T01:54:04;22.46;53.37
63202;DHT22;49296;48.188;11.566;2023-07-20T01:56:31;22.53;53.29
63202;DHT22;49296;48.188;11.566;2023-07-20T01:58:57;22.61;53.14
63202;DHT22;49296;48.188;11.566;2023-07-20T02:01:24;22.51;53.42
63202;DHT22;49296;48.188;11.566;2023-07-20T02:03:54;22.56;53.58
63202;DHT22;49296;48.188;11.566;2023-07-20T02:06:22;22.44;53.64
63202;DHT22;49296;48.188;11.566;2023-07-20T02:08:49;22.29;54.08
63202;DHT22;49296;48.188;11.566;2023-07-20T02:11:16;22.16;54.42
63202;DHT22;49296;48.188;11.566;2023-07-20T02:13:43;22.41;54.05
63202;DHT22;49296;48.188;11.566;2023-07-20T02:16:10;22.43;54.00
63202;DHT22;49296;48.188;11.566;2023-07-20T02:18:37;22.47;54.10
63202;DHT22;49296;48.188;11.566;2023-07-20T02:21:04;22.43;54.26
63202;DHT22;49296;48.188;11.566;2023-07-20T02:23:32;22.47;54.42
63202;DHT22;49296;48.188;11.566;2023-07-20T02:25:59;22.54;54.42
63202;DHT22;49296;48.188;11.566;2023-07-20T02:28:26;22.54;54.62
63202;DHT22;49296;48.188;11.566;2023-07-20T02:30:54;22.56;54.80
63202;DHT22;49296;48.188;11.566;2023-07-20T02:33:21;22.44;54.99
63202;DHT22;49296;48.188;11.566;2023-07-20T02:35:48;22.40;54.87
63202;DHT22;49296;48.188;11.566;2023-07-20T02:38:14;22.46;54.82
63202;DHT22;49296;48.188;11.566;2023-07-20T02:40:43;22.17;55.34
63202;DHT22;49296;48.188;11.566;2023-07-20T02:43:09;21.95;55.70
63202;DHT22;49296;48.188;11.566;2023-07-20T02:45:40;21.71;56.27
63202;DHT22;49296;48.188;11.566;2023-07-20T02:48:07;21.87;55.73
63202;DHT22;49296;48.188;11.566;2023-07-20T02:50:34;21.58;56.37
63202;DHT22;49296;48.188;11.566;2023-07-20T02:53:01;21.57;56.38
63202;DHT22;49296;48.188;11.566;2023-07-20T02:55:28;21.71;56.03
63202;DHT22;49296;48.188;11.566;2023-07-20T02:57:56;21.67;56.33
63202;DHT22;49296;48.188;11.566;2023-07-20T03:00:23;21.44;56.52
63202;DHT22;49296;48.188;11.566;2023-07-20T03:02:50;21.44;56.91
63202;DHT22;49296;48.188;11.566;2023-07-20T03:05:21;21.70;56.37
63202;DHT22;49296;48.188;11.566;2023-07-20T03:07:48;21.46;56.61
63202;DHT22;49296;48.188;11.566;2023-07-20T03:10:15;21.30;56.75
63202;DHT22;49296;48.188;11.566;2023-07-20T03:12:42;21.49;56.20
63202;DHT22;49296;48.188;11.566;2023-07-20T03:15:11;21.61;56.07
63202;DHT22;49296;48.188;11.566;2023-07-20T03:17:38;21.65;55.89
63202;DHT22;49296;48.188;11.566;2023-07-20T03:20:05;21.40;56.45
63202;DHT22;49296;48.188;11.566;2023-07-20T03:22:35;21.26;56.74
63202;DHT22;49296;48.188;11.566;2023-07-20T03:25:02;21.30;56.68
63202;DHT22;49296;48.188;11.566;2023-07-20T03:27:29;21.34;56.61
63202;DHT22;49296;48.188;11.566;2023-07-20T03:29:56;21.55;56.05
63202;DHT22;49296;48.188;11.566;2023-07-20T03:32:24;21.60;55.82
63202;DHT22;49296;48.188;11.566;2023-07-20T03:34:51;21.65;54.98
63202;DHT22;49296;48.188;11.566;2023-07-20T03:37:18;21.29;55.27
63202;DHT22;49296;48.188;11.566;2023-07-20T03:39:45;21.18;55.56
63202;DHT22;49296;48.188;11.566;2023-07-20T03:42:12;21.34;55.18
63202;DHT22;49296;48.188;11.566;2023-07-20T03:44:39;21.00;55.85
63202;DHT22;49296;48.188;11.566;2023-07-20T03:47:06;20.94;55.95
63202;DHT22;49296;48.188;11.566;2023-07-20T03:49:34;21.13;55.67
63202;DHT22;49296;48.188;11.566;2023-07-20T03:52:01;20.94;55.88
63202;DHT22;49296;48.188;11.566;2023-07-20T03:54:28;21.18;55.40
63202;DHT22;49296;48.188;11.566;2023-07-20T03:56:55;20.98;55.30
63202;DHT22;49296;48.188;11.566;2023-07-20T03:59:22;20.80;55.65
63202;DHT22;49296;48.188;11.566;2023-07-20T04:01:49;20.84;55.83
63202;DHT22;49296;48.188;11.566;2023-07-20T04:04:16;21.03;55.42
63202;DHT22;49296;48.188;11.566;2023-07-20T04:06:44;21.02;55.11
63202;DHT22;49296;48.188;11.566;2023-07-20T04:09:11;21.16;54.76
63202;DHT22;49296;48.188;11.566;2023-07-20T04:11:39;21.10;57.24
63202;DHT22;49296;48.188;11.566;2023-07-20T04:14:05;20.90;58.96
63202;DHT22;49296;48.188;11.566;2023-07-20T04:16:32;20.80;59.57
63202;DHT22;49296;48.188;11.566;2023-07-20T04:18:59;20.88;59.53
63202;DHT22;49296;48.188;11.566;2023-07-20T04:21:28;20.99;59.57
63202;DHT22;49296;48.188;11.566;2023-07-20T04:23:56;21.10;59.26
63202;DHT22;49296;48.188;11.566;2023-07-20T04:26:23;21.16;59.23
63202;DHT22;49296;48.188;11.566;2023-07-20T04:28:50;20.95;59.40
63202;DHT22;49296;48.188;11.566;2023-07-20T04:31:18;20.98;59.38
63202;DHT22;49296;48.188;11.566;2023-07-20T04:33:44;20.96;59.40
63202;DHT22;49296;48.188;11.566;2023-07-20T04:36:11;20.77;59.53
63202;DHT22;49296;48.188;11.566;2023-07-20T04:38:40;20.81;59.23
63202;DHT22;49296;48.188;11.566;2023-07-20T04:41:11;20.46;60.29
63202;DHT22;49296;48.188;11.566;2023-07-20T04:43:41;20.61;59.93
63202;DHT22;49296;48.188;11.566;2023-07-20T04:46:08;20.64;60.09
63202;DHT22;49296;48.188;11.566;2023-07-20T04:48:35;20.61;59.92
63202;DHT22;49296;48.188;11.566;2023-07-20T04:51:02;20.54;60.32
63202;DHT22;49296;48.188;11.566;2023-07-20T04:53:29;20.64;60.15
63202;DHT22;49296;48.188;11.566;2023-07-20T04:55:57;20.60;60.31
63202;DHT22;49296;48.188;11.566;2023-07-20T04:58:25;20.46;60.46
63202;DHT22;49296;48.188;11.566;2023-07-20T05:00:52;20.54;60.31
63202;DHT22;49296;48.188;11.566;2023-07-20T05:03:19;20.57;59.57
63202;DHT22;49296;48.188;11.566;2023-07-20T05:05:46;20.57;60.10
63202;DHT22;49296;48.188;11.566;2023-07-20T05:08:13;20.74;59.86
63202;DHT22;49296;48.188;11.566;2023-07-20T05:10:40;20.71;59.97
63202;DHT22;49296;48.188;11.566;2023-07-20T05:13:06;20.61;60.30
63202;DHT22;49296;48.188;11.566;2023-07-20T05:15:35;20.87;59.89
63202;DHT22;49296;48.188;11.566;2023-07-20T05:18:02;20.94;59.33
63202;DHT22;49296;48.188;11.566;2023-07-20T05:20:29;20.77;58.84
63202;DHT22;49296;48.188;11.566;2023-07-20T05:22:57;20.58;59.17
63202;DHT22;49296;48.188;11.566;2023-07-20T05:25:24;20.71;58.74
63202;DHT22;49296;48.188;11.566;2023-07-20T05:27:51;20.63;57.96
63202;DHT22;49296;48.188;11.566;2023-07-20T05:30:20;20.64;57.20
63202;DHT22;49296;48.188;11.566;2023-07-20T05:32:49;20.70;56.49
63202;DHT22;49296;48.188;11.566;2023-07-20T05:35:19;20.90;55.90
63202;DHT22;49296;48.188;11.566;2023-07-20T05:37:47;21.05;54.97
63202;DHT22;49296;48.188;11.566;2023-07-20T05:40:14;20.84;54.97
63202;DHT22;49296;48.188;11.566;2023-07-20T05:42:44;20.67;54.09
63202;DHT22;49296;48.188;11.566;2023-07-20T05:45:11;20.26;54.70
63202;DHT22;49296;48.188;11.566;2023-07-20T05:47:38;20.26;54.39
63202;DHT22;49296;48.188;11.566;2023-07-20T05:50:07;20.16;54.60
63202;DHT22;49296;48.188;11.566;2023-07-20T05:52:34;20.15;54.82
63202;DHT22;49296;48.188;11.566;2023-07-20T05:55:01;20.43;54.13
63202;DHT22;49296;48.188;11.566;2023-07-20T05:57:28;20.33;54.67
63202;DHT22;49296;48.188;11.566;2023-07-20T05:59:55;20.34;54.47
63202;DHT22;49296;48.188;11.566;2023-07-20T06:02:22;20.12;54.89
63202;DHT22;49296;48.188;11.566;2023-07-20T06:04:49;20.32;54.74
63202;DHT22;49296;48.188;11.566;2023-07-20T06:07:17;20.36;54.66
63202;DHT22;49296;48.188;11.566;2023-07-20T06:09:44;20.22;55.18
63202;DHT22;49296;48.188;11.566;2023-07-20T06:12:11;20.41;54.59
63202;DHT22;49296;48.188;11.566;2023-07-20T06:14:38;20.63;54.49
63202;DHT22;49296;48.188;11.566;2023-07-20T06:17:05;20.51;54.37
63202;DHT22;49296;48.188;11.566;2023-07-20T06:19:32;20.34;55.27
63202;DHT22;49296;48.188;11.566;2023-07-20T06:21:59;20.43;54.57
63202;DHT22;49296;48.188;11.566;2023-07-20T06:24:27;20.33;55.02
63202;DHT22;49296;48.188;11.566;2023-07-20T06:26:54;20.46;54.70
63202;DHT22;49296;48.188;11.566;2023-07-20T06:29:20;20.41;54.71
63202;DHT22;49296;48.188;11.566;2023-07-20T06:31:47;20.63;54.19
63202;DHT22;49296;48.188;11.566;2023-07-20T06:34:14;20.60;54.07
63202;DHT22;49296;48.188;11.566;2023-07-20T06:36:41;20.61;54.56
63202;DHT22;49296;48.188;11.566;2023-07-20T06:39:08;20.87;54.34
63202;DHT22;49296;48.188;11.566;2023-07-20T06:41:36;20.77;54.40
63202;DHT22;49296;48.188;11.566;2023-07-20T06:44:03;20.50;54.51
63202;DHT22;49296;48.188;11.566;2023-07-20T06:46:30;20.56;54.34
63202;DHT22;49296;48.188;11.566;2023-07-20T06:48:57;20.78;54.06
63202;DHT22;49296;48.188;11.566;2023-07-20T06:51:24;20.78;53.74
63202;DHT22;49296;48.188;11.566;2023-07-20T06:53:51;20.60;54.22
63202;DHT22;49296;48.188;11.566;2023-07-20T06:56:17;20.68;54.24
63202;DHT22;49296;48.188;11.566;2023-07-20T06:58:46;20.67;54.32
63202;DHT22;49296;48.188;11.566;2023-07-20T07:01:13;20.47;54.88
63202;DHT22;49296;48.188;11.566;2023-07-20T07:03:40;20.67;54.38
63202;DHT22;49296;48.188;11.566;2023-07-20T07:06:07;20.63;54.70
63202;DHT22;49296;48.188;11.566;2023-07-20T07:08:34;20.80;54.00
63202;DHT22;49296;48.188;11.566;2023-07-20T07:11:01;20.61;53.85
63202;DHT22;49296;48.188;11.566;2023-07-20T07:13:28;20.67;53.45
63202;DHT22;49296;48.188;11.566;2023-07-20T07:15:57;20.67;53.43
63202;DHT22;49296;48.188;11.566;2023-07-20T07:18:24;20.73;53.58
63202;DHT22;49296;48.188;11.566;2023-07-20T07:20:52;20.78;53.40
63202;DHT22;49296;48.188;11.566;2023-07-20T07:23:19;20.80;53.33
63202;DHT22;49296;48.188;11.566;2023-07-20T07:25:46;20.95;53.23
63202;DHT22;49296;48.188;11.566;2023-07-20T07:28:13;21.12;52.09
63202;DHT22;49296;48.188;11.566;2023-07-20T07:30:40;21.15;51.63
63202;DHT22;49296;48.188;11.566;2023-07-20T07:33:09;21.23;51.61
63202;DHT22;49296;48.188;11.566;2023-07-20T07:35:36;21.42;50.82
63202;DHT22;49296;48.188;11.566;2023-07-20T07:38:03;21.46;50.71
63202;DHT22;49296;48.188;11.566;2023-07-20T07:40:30;21.19;51.78
63202;DHT22;49296;48.188;11.566;2023-07-20T07:42:57;21.36;50.32
63202;DHT22;49296;48.188;11.566;2023-07-20T07:45:24;21.42;50.54
63202;DHT22;49296;48.188;11.566;2023-07-20T07:47:51;21.32;50.66
63202;DHT22;49296;48.188;11.566;2023-07-20T07:50:19;21.33;49.31
63202;DHT22;49296;48.188;11.566;2023-07-20T07:52:46;21.30;48.77
63202;DHT22;49296;48.188;11.566;2023-07-20T07:55:13;21.51;49.17
63202;DHT22;49296;48.188;11.566;2023-07-20T07:57:42;21.53;49.84
63202;DHT22;49296;48.188;11.566;2023-07-20T08:00:10;21.33;50.59
63202;DHT22;49296;48.188;11.566;2023-07-20T08:02:40;21.60;50.73
63202;DHT22;49296;48.188;11.566;2023-07-20T08:05:07;21.55;51.19
63202;DHT22;49296;48.188;11.566;2023-07-20T08:07:35;21.77;50.70
63202;DHT22;49296;48.188;11.566;2023-07-20T08:10:03;21.88;50.48
63202;DHT22;49296;48.188;11.566;2023-07-20T08:12:30;21.85;50.05
63202;DHT22;49296;48.188;11.566;2023-07-20T08:14:57;21.78;49.83
63202;DHT22;49296;48.188;11.566;2023-07-20T08:17:24;21.64;49.59
63202;DHT22;49296;48.188;11.566;2023-07-20T08:19:51;21.54;49.72
63202;DHT22;49296;48.188;11.566;2023-07-20T08:22:17;21.74;49.42
63202;DHT22;49296;48.188;11.566;2023-07-20T08:24:46;21.88;49.14
63202;DHT22;49296;48.188;11.566;2023-07-20T08:27:13;21.62;49.49
63202;DHT22;49296;48.188;11.566;2023-07-20T08:29:39;21.73;49.45
63202;DHT22;49296;48.188;11.566;2023-07-20T08:32:06;21.73;49.18
63202;DHT22;49296;48.188;11.566;2023-07-20T08:34:33;21.71;49.11
63202;DHT22;49296;48.188;11.566;2023-07-20T08:37:00;21.94;49.00
63202;DHT22;49296;48.188;11.566;2023-07-20T08:39:27;22.17;48.84
63202;DHT22;49296;48.188;11.566;2023-07-20T08:41:57;22.12;48.48
63202;DHT22;49296;48.188;11.566;2023-07-20T08:44:27;22.16;48.66
63202;DHT22;49296;48.188;11.566;2023-07-20T08:46:54;22.23;48.03
63202;DHT22;49296;48.188;11.566;2023-07-20T08:49:21;22.37;47.80
63202;DHT22;49296;48.188;11.566;2023-07-20T08:51:48;22.36;47.47
63202;DHT22;49296;48.188;11.566;2023-07-20T08:54:16;22.32;47.85
63202;DHT22;49296;48.188;11.566;2023-07-20T08:56:45;22.29;47.34
63202;DHT22;49296;48.188;11.566;2023-07-20T08:59:16;22.53;47.30
63202;DHT22;49296;48.188;11.566;2023-07-20T09:01:44;22.56;47.04
63202;DHT22;49296;48.188;11.566;2023-07-20T09:04:11;22.36;47.49
63202;DHT22;49296;48.188;11.566;2023-07-20T09:06:38;22.35;47.40
63202;DHT22;49296;48.188;11.566;2023-07-20T09:09:06;22.44;46.44
63202;DHT22;49296;48.188;11.566;2023-07-20T09:11:33;22.67;46.54
63202;DHT22;49296;48.188;11.566;2023-07-20T09:14:04;22.57;46.02
63202;DHT22;49296;48.188;11.566;2023-07-20T09:16:32;22.51;45.92
63202;DHT22;49296;48.188;11.566;2023-07-20T09:18:59;22.60;46.29
63202;DHT22;49296;48.188;11.566;2023-07-20T09:21:29;22.63;45.51
63202;DHT22;49296;48.188;11.566;2023-07-20T09:23:56;22.57;46.15
63202;DHT22;49296;48.188;11.566;2023-07-20T09:26:23;22.68;45.67
63202;DHT22;49296;48.188;11.566;2023-07-20T09:28:52;22.64;45.07
63202;DHT22;49296;48.188;11.566;2023-07-20T09:31:21;22.72;45.59
63202;DHT22;49296;48.188;11.566;2023-07-20T09:33:52;22.82;45.15
63202;DHT22;49296;48.188;11.566;2023-07-20T09:36:19;22.32;46.08
63202;DHT22;49296;48.188;11.566;2023-07-20T09:38:46;22.50;46.21
63202;DHT22;49296;48.188;11.566;2023-07-20T09:41:14;22.54;46.03
63202;DHT22;49296;48.188;11.566;2023-07-20T09:43:42;22.54;45.98
63202;DHT22;49296;48.188;11.566;2023-07-20T09:46:09;22.74;45.82
63202;DHT22;49296;48.188;11.566;2023-07-20T09:48:36;22.68;45.93
63202;DHT22;49296;48.188;11.566;2023-07-20T09:51:05;22.74;45.71
63202;DHT22;49296;48.188;11.566;2023-07-20T09:53:33;22.69;46.06
63202;DHT22;49296;48.188;11.566;2023-07-20T09:56:00;22.72;46.08
63202;DHT22;49296;48.188;11.566;2023-07-20T09:58:28;22.78;45.72
63202;DHT22;49296;48.188;11.566;2023-07-20T10:00:57;22.79;45.77
63202;DHT22;49296;48.188;11.566;2023-07-20T10:03:29;22.72;46.04
63202;DHT22;49296;48.188;11.566;2023-07-20T10:05:57;22.64;46.59
63202;DHT22;49296;48.188;11.566;2023-07-20T10:08:28;22.75;47.00
63202;DHT22;49296;48.188;11.566;2023-07-20T10:10:57;22.68;46.39
63202;DHT22;49296;48.188;11.566;2023-07-20T10:13:26;22.65;46.59
63202;DHT22;49296;48.188;11.566;2023-07-20T10:15:54;22.94;46.61
63202;DHT22;49296;48.188;11.566;2023-07-20T10:18:28;23.08;46.26
63202;DHT22;49296;48.188;11.566;2023-07-20T10:20:57;23.34;46.58
63202;DHT22;49296;48.188;11.566;2023-07-20T10:23:29;23.30;46.31
63202;DHT22;49296;48.188;11.566;2023-07-20T10:25:57;23.50;46.38
63202;DHT22;49296;48.188;11.566;2023-07-20T10:28:24;23.60;45.33
63202;DHT22;49296;48.188;11.566;2023-07-20T10:30:51;23.24;45.57
63202;DHT22;49296;48.188;11.566;2023-07-20T10:33:18;23.24;45.58
63202;DHT22;49296;48.188;11.566;2023-07-20T10:35:53;23.27;45.95
63202;DHT22;49296;48.188;11.566;2023-07-20T10:38:38;23.55;45.58
63202;DHT22;49296;48.188;11.566;2023-07-20T10:41:15;23.24;46.24
63202;DHT22;49296;48.188;11.566;2023-07-20T10:43:43;23.15;46.91
63202;DHT22;49296;48.188;11.566;2023-07-20T10:46:11;23.15;46.91
63202;DHT22;49296;48.188;11.566;2023-07-20T10:48:59;23.26;46.29
63202;DHT22;49296;48.188;11.566;2023-07-20T10:51:26;23.30;46.88
63202;DHT22;49296;48.188;11.566;2023-07-20T10:53:55;23.49;46.69
63202;DHT22;49296;48.188;11.566;2023-07-20T10:56:26;23.51;46.17
63202;DHT22;49296;48.188;11.566;2023-07-20T10:58:57;23.40;46.74
63202;DHT22;49296;48.188;11.566;2023-07-20T11:01:28;22.96;46.73
63202;DHT22;49296;48.188;11.566;2023-07-20T11:03:57;23.24;47.13
63202;DHT22;49296;48.188;11.566;2023-07-20T11:06:31;23.20;46.84
63202;DHT22;49296;48.188;11.566;2023-07-20T11:09:07;23.30;46.85
63202;DHT22;49296;48.188;11.566;2023-07-20T11:11:37;23.46;46.19
63202;DHT22;49296;48.188;11.566;2023-07-20T11:14:06;23.37;46.45
63202;DHT22;49296;48.188;11.566;2023-07-20T11:16:35;23.39;45.98
63202;DHT22;49296;48.188;11.566;2023-07-20T11:19:03;23.43;46.21
63202;DHT22;49296;48.188;11.566;2023-07-20T11:21:35;23.72;46.27
63202;DHT22;49296;48.188;11.566;2023-07-20T11:24:04;23.82;45.93
63202;DHT22;49296;48.188;11.566;2023-07-20T11:26:42;24.06;45.59
63202;DHT22;49296;48.188;11.566;2023-07-20T11:29:09;23.95;45.65
63202;DHT22;49296;48.188;11.566;2023-07-20T11:31:37;23.84;45.63
63202;DHT22;49296;48.188;11.566;2023-07-20T11:34:04;23.85;45.55
63202;DHT22;49296;48.188;11.566;2023-07-20T11:36:31;24.09;45.45
63202;DHT22;49296;48.188;11.566;2023-07-20T11:38:58;24.02;45.55
63202;DHT22;49296;48.188;11.566;2023-07-20T11:41:25;23.81;45.59
63202;DHT22;49296;48.188;11.566;2023-07-20T11:43:54;23.74;45.97
63202;DHT22;49296;48.188;11.566;2023-07-20T11:46:21;23.81;45.34
63202;DHT22;49296;48.188;11.566;2023-07-20T11:48:48;23.62;46.10
63202;DHT22;49296;48.188;11.566;2023-07-20T11:51:16;23.49;45.85
63202;DHT22;49296;48.188;11.566;2023-07-20T11:53:44;23.49;46.23
63202;DHT22;49296;48.188;11.566;2023-07-20T11:56:11;23.44;46.38
63202;DHT22;49296;48.188;11.566;2023-07-20T11:58:42;23.47;46.57
63202;DHT22;49296;48.188;11.566;2023-07-20T12:01:13;23.36;46.44
63202;DHT22;49296;48.188;11.566;2023-07-20T12:03:41;23.31;46.25
63202;DHT22;49296;48.188;11.566;2023-07-20T12:06:09;23.58;46.16
63202;DHT22;49296;48.188;11.566;2023-07-20T12:08:38;23.85;45.84
63202;DHT22;49296;48.188;11.566;2023-07-20T12:11:06;24.05;45.18
63202;DHT22;49296;48.188;11.566;2023-07-20T12:13:37;24.12;45.21
63202;DHT22;49296;48.188;11.566;2023-07-20T12:16:09;24.37;45.43
63202;DHT22;49296;48.188;11.566;2023-07-20T12:18:40;24.51;45.20
63202;DHT22;49296;48.188;11.566;2023-07-20T12:21:07;24.26;45.35
63202;DHT22;49296;48.188;11.566;2023-07-20T12:23:36;24.37;45.20
63202;DHT22;49296;48.188;11.566;2023-07-20T12:26:06;24.50;44.58
63202;DHT22;49296;48.188;11.566;2023-07-20T12:28:33;24.57;44.48
63202;DHT22;49296;48.188;11.566;2023-07-20T12:31:00;24.29;45.05
63202;DHT22;49296;48.188;11.566;2023-07-20T12:33:27;24.34;45.34
63202;DHT22;49296;48.188;11.566;2023-07-20T12:35:55;24.37;44.77
63202;DHT22;49296;48.188;11.566;2023-07-20T12:38:24;24.40;46.28
63202;DHT22;49296;48.188;11.566;2023-07-20T12:40:52;24.86;45.39
63202;DHT22;49296;48.188;11.566;2023-07-20T12:43:20;24.78;44.77
63202;DHT22;49296;48.188;11.566;2023-07-20T12:45:47;24.46;44.81
63202;DHT22;49296;48.188;11.566;2023-07-20T12:48:14;24.40;45.18
63202;DHT22;49296;48.188;11.566;2023-07-20T12:50:41;24.67;45.05
63202;DHT22;49296;48.188;11.566;2023-07-20T12:53:09;24.85;44.61
63202;DHT22;49296;48.188;11.566;2023-07-20T12:55:37;24.81;44.29
63202;DHT22;49296;48.188;11.566;2023-07-20T12:58:04;25.02;44.17
63202;DHT22;49296;48.188;11.566;2023-07-20T13:00:31;25.16;43.88
63202;DHT22;49296;48.188;11.566;2023-07-20T13:02:58;25.27;43.96
63202;DHT22;49296;48.188;11.566;2023-07-20T13:05:25;25.74;42.34
63202;DHT22;49296;48.188;11.566;2023-07-20T13:07:52;25.98;42.01
63202;DHT22;49296;48.188;11.566;2023-07-20T13:10:20;25.89;41.91
63202;DHT22;49296;48.188;11.566;2023-07-20T13:12:47;25.91;42.15
63202;DHT22;49296;48.188;11.566;2023-07-20T13:15:14;26.26;41.05
63202;DHT22;49296;48.188;11.566;2023-07-20T13:17:41;26.22;41.21
63202;DHT22;49296;48.188;11.566;2023-07-20T13:20:09;26.10;41.54
63202;DHT22;49296;48.188;11.566;2023-07-20T13:22:37;26.27;41.47
63202;DHT22;49296;48.188;11.566;2023-07-20T13:25:08;26.16;41.51
63202;DHT22;49296;48.188;11.566;2023-07-20T13:27:36;26.62;41.47
63202;DHT22;49296;48.188;11.566;2023-07-20T13:30:04;27.00;40.29
63202;DHT22;49296;48.188;11.566;2023-07-20T13:32:33;26.77;39.96
63202;DHT22;49296;48.188;11.566;2023-07-20T13:35:00;26.79;39.85
63202;DHT22;49296;48.188;11.566;2023-07-20T13:37:26;26.36;41.11
63202;DHT22;49296;48.188;11.566;2023-07-20T13:39:53;26.75;40.75
63202;DHT22;49296;48.188;11.566;2023-07-20T13:42:20;26.75;40.17
63202;DHT22;49296;48.188;11.566;2023-07-20T13:44:48;27.40;39.61
63202;DHT22;49296;48.188;11.566;2023-07-20T13:47:15;27.50;39.24
63202;DHT22;49296;48.188;11.566;2023-07-20T13:49:43;27.88;38.95
63202;DHT22;49296;48.188;11.566;2023-07-20T13:52:10;27.98;38.47
63202;DHT22;49296;48.188;11.566;2023-07-20T13:54:36;27.74;37.39
63202;DHT22;49296;48.188;11.566;2023-07-20T13:57:03;28.62;36.91
63202;DHT22;49296;48.188;11.566;2023-07-20T13:59:30;28.39;37.44
63202;DHT22;49296;48.188;11.566;2023-07-20T14:01:59;27.75;37.59
63202;DHT22;49296;48.188;11.566;2023-07-20T14:04:25;28.33;37.64
63202;DHT22;49296;48.188;11.566;2023-07-20T14:06:52;28.62;36.54
63202;DHT22;49296;48.188;11.566;2023-07-20T14:09:19;29.07;36.63
63202;DHT22;49296;48.188;11.566;2023-07-20T14:11:46;29.00;37.73
63202;DHT22;49296;48.188;11.566;2023-07-20T14:14:13;27.55;38.23
63202;DHT22;49296;48.188;11.566;2023-07-20T14:16:40;27.17;39.20
63202;DHT22;49296;48.188;11.566;2023-07-20T14:19:08;27.34;39.32
63202;DHT22;49296;48.188;11.566;2023-07-20T14:21:35;27.30;39.14
63202;DHT22;49296;48.188;11.566;2023-07-20T14:24:02;27.14;39.97
63202;DHT22;49296;48.188;11.566;2023-07-20T14:26:29;27.41;39.06
63202;DHT22;49296;48.188;11.566;2023-07-20T14:28:56;28.26;38.38
63202;DHT22;49296;48.188;11.566;2023-07-20T14:31:22;28.95;38.06
63202;DHT22;49296;48.188;11.566;2023-07-20T14:33:49;29.26;36.52
63202;DHT22;49296;48.188;11.566;2023-07-20T14:36:18;29.23;35.84
63202;DHT22;49296;48.188;11.566;2023-07-20T14:38:47;29.58;35.89
63202;DHT22;49296;48.188;11.566;2023-07-20T14:41:13;29.74;35.72
63202;DHT22;49296;48.188;11.566;2023-07-20T14:43:40;29.59;36.20
63202;DHT22;49296;48.188;11.566;2023-07-20T14:46:07;29.99;34.86
63202;DHT22;49296;48.188;11.566;2023-07-20T14:48:34;30.12;34.64
63202;DHT22;49296;48.188;11.566;2023-07-20T14:51:01;30.89;33.94
63202;DHT22;49296;48.188;11.566;2023-07-20T14:53:29;31.33;33.28
63202;DHT22;49296;48.188;11.566;2023-07-20T14:55:59;31.20;33.25
63202;DHT22;49296;48.188;11.566;2023-07-20T14:58:26;30.49;33.07
63202;DHT22;49296;48.188;11.566;2023-07-20T15:00:56;30.17;33.34
63202;DHT22;49296;48.188;11.566;2023-07-20T15:03:23;30.28;34.37
63202;DHT22;49296;48.188;11.566;2023-07-20T15:05:50;30.08;34.22
63202;DHT22;49296;48.188;11.566;2023-07-20T15:08:17;30.72;33.48
63202;DHT22;49296;48.188;11.566;2023-07-20T15:10:47;31.13;33.38
63202;DHT22;49296;48.188;11.566;2023-07-20T15:13:15;31.02;33.92
63202;DHT22;49296;48.188;11.566;2023-07-20T15:15:42;31.51;33.16
63202;DHT22;49296;48.188;11.566;2023-07-20T15:18:09;31.29;33.51
63202;DHT22;49296;48.188;11.566;2023-07-20T15:20:36;31.27;33.60